createdAt,value
2022-11-19T00:01:26.349Z,-2.20
2022-11-19T00:03:54.694Z,-2.19
2022-11-19T00:06:25.135Z,-2.19
2022-11-19T00:08:53.609Z,-2.19
2022-11-19T00:11:42.257Z,-2.20
2022-11-19T00:14:12.614Z,-2.20
2022-11-19T00:16:40.867Z,-2.20
2022-11-19T00:19:11.003Z,-2.19
2022-11-19T00:21:38.801Z,-2.16
2022-11-19T00:24:07.111Z,-2.13
2022-11-19T00:26:34.826Z,-2.12
2022-11-19T00:29:02.553Z,-2.09
2022-11-19T00:31:30.211Z,-2.08
2022-11-19T00:33:57.809Z,-2.08
2022-11-19T00:36:25.374Z,-2.08
2022-11-19T00:38:52.943Z,-2.09
2022-11-19T00:41:20.591Z,-2.07
2022-11-19T00:43:49.039Z,-2.09
2022-11-19T00:46:22.208Z,-2.08
2022-11-19T00:48:51.304Z,-2.07
2022-11-19T00:51:20.057Z,-2.04
2022-11-19T00:53:47.832Z,-2.00
2022-11-19T00:56:18.136Z,-1.98
2022-11-19T00:58:46.441Z,-1.96
2022-11-19T01:01:15.294Z,-1.94
2022-11-19T01:03:45.617Z,-1.93
2022-11-19T01:06:18.858Z,-1.93
2022-11-19T01:08:48.235Z,-1.93
2022-11-19T01:11:19.951Z,-1.94
2022-11-19T01:13:48.385Z,-1.99
2022-11-19T01:16:22.034Z,-2.00
2022-11-19T01:18:50.721Z,-1.98
2022-11-19T01:21:19.984Z,-1.97
2022-11-19T01:23:48.030Z,-1.95
2022-11-19T01:26:16.243Z,-1.93
2022-11-19T01:28:44.518Z,-1.92
2022-11-19T01:31:19.403Z,-1.91
2022-11-19T01:33:47.939Z,-1.90
2022-11-19T01:36:23.757Z,-1.89
2022-11-19T01:38:51.890Z,-1.89
2022-11-19T01:41:28.437Z,-1.89
2022-11-19T01:43:59.288Z,-1.87
2022-11-19T01:46:29.911Z,-1.85
2022-11-19T01:49:04.649Z,-1.84
2022-11-19T01:51:39.090Z,-1.85
2022-11-19T01:54:35.906Z,-1.86
2022-11-19T01:57:08.177Z,-1.92
2022-11-19T01:59:36.299Z,-1.94
2022-11-19T02:02:03.943Z,-1.94
2022-11-19T02:04:32.551Z,-1.94
2022-11-19T02:07:01.726Z,-1.93
2022-11-19T02:09:29.513Z,-1.94
2022-11-19T02:12:07.820Z,-1.94
2022-11-19T02:14:49.257Z,-1.94
2022-11-19T02:17:26.025Z,-1.93
2022-11-19T02:20:24.492Z,-1.92
2022-11-19T02:23:27.647Z,-1.92
2022-11-19T02:26:24.749Z,-1.94
2022-11-19T02:28:55.534Z,-1.96
2022-11-19T02:31:49.911Z,-1.97
2022-11-19T02:34:38.869Z,-2.00
2022-11-19T02:37:15.120Z,-2.03
2022-11-19T02:39:52.868Z,-2.04
2022-11-19T02:42:34.124Z,-2.04
2022-11-19T02:45:30.935Z,-2.05
2022-11-19T02:48:12.013Z,-2.06
2022-11-19T02:50:46.345Z,-2.06
2022-11-19T02:53:14.116Z,-2.05
2022-11-19T02:55:41.966Z,-2.03
2022-11-19T02:58:33.183Z,-2.03
2022-11-19T03:01:21.304Z,-2.05
2022-11-19T03:04:08.167Z,-2.05
2022-11-19T03:06:36.023Z,-2.06
2022-11-19T03:09:03.968Z,-2.04
2022-11-19T03:11:32.471Z,-2.01
2022-11-19T03:14:27.867Z,-1.99
2022-11-19T03:17:02.156Z,-2.01
2022-11-19T03:19:54.316Z,-2.05
2022-11-19T03:22:26.736Z,-2.08
2022-11-19T03:25:38.218Z,-2.11
2022-11-19T03:28:12.028Z,-2.15
2022-11-19T03:30:41.030Z,-2.15
2022-11-19T03:33:11.346Z,-2.14
2022-11-19T03:35:52.176Z,-2.13
2022-11-19T03:38:29.730Z,-2.14
2022-11-19T03:40:58.092Z,-2.15
2022-11-19T03:43:28.141Z,-2.15
2022-11-19T03:45:57.331Z,-2.17
2022-11-19T03:48:25.994Z,-2.21
2022-11-19T03:50:57.979Z,-2.25
2022-11-19T03:53:25.979Z,-2.29
2022-11-19T03:56:05.155Z,-2.33
2022-11-19T03:58:38.341Z,-2.35
2022-11-19T04:01:06.434Z,-2.38
2022-11-19T04:03:34.295Z,-2.39
2022-11-19T04:06:03.080Z,-2.42
2022-11-19T04:08:31.157Z,-2.46
2022-11-19T04:13:25.545Z,-2.53
2022-11-19T04:15:53.144Z,-2.56
2022-11-19T04:18:20.715Z,-2.61
2022-11-19T04:20:48.298Z,-2.64
2022-11-19T04:23:15.861Z,-2.69
2022-11-19T04:25:47.335Z,-2.75
2022-11-19T04:28:15.015Z,-2.82
2022-11-19T04:30:43.063Z,-2.87
2022-11-19T04:33:10.650Z,-2.90
2022-11-19T04:35:38.209Z,-2.95
2022-11-19T04:38:05.771Z,-2.98
2022-11-19T04:40:33.328Z,-3.02
2022-11-19T04:43:01.189Z,-3.08
2022-11-19T04:45:28.734Z,-3.13
2022-11-19T04:47:56.295Z,-3.15
2022-11-19T04:50:23.922Z,-3.15
2022-11-19T04:52:51.562Z,-3.17
2022-11-19T04:55:19.132Z,-3.21
2022-11-19T04:57:46.708Z,-3.24
2022-11-19T05:00:15.360Z,-3.26
2022-11-19T05:02:43.007Z,-3.27
2022-11-19T05:05:10.640Z,-3.28
2022-11-19T05:07:38.253Z,-3.29
2022-11-19T05:10:06.307Z,-3.31
2022-11-19T05:12:33.886Z,-3.32
2022-11-19T05:15:01.738Z,-3.34
2022-11-19T05:17:29.344Z,-3.35
2022-11-19T05:19:59.568Z,-3.35
2022-11-19T05:22:27.195Z,-3.33
2022-11-19T05:24:54.784Z,-3.32
2022-11-19T05:27:22.396Z,-3.33
2022-11-19T05:29:50.228Z,-3.34
2022-11-19T05:32:17.807Z,-3.33
2022-11-19T05:34:45.364Z,-3.31
2022-11-19T05:37:12.927Z,-3.29
2022-11-19T05:39:40.505Z,-3.29
2022-11-19T05:42:08.092Z,-3.28
2022-11-19T05:44:35.672Z,-3.29
2022-11-19T05:47:03.347Z,-3.28
2022-11-19T05:49:30.925Z,-3.31
2022-11-19T05:51:58.582Z,-3.29
2022-11-19T05:54:26.224Z,-3.29
2022-11-19T05:56:53.878Z,-3.29
2022-11-19T05:59:22.024Z,-3.30
2022-11-19T06:01:49.786Z,-3.31
2022-11-19T06:04:17.516Z,-3.31
2022-11-19T06:06:45.526Z,-3.31
2022-11-19T06:09:13.117Z,-3.33
2022-11-19T06:11:53.017Z,-3.33
2022-11-19T06:14:22.832Z,-3.36
2022-11-19T06:16:55.130Z,-3.38
2022-11-19T06:19:23.567Z,-3.38
2022-11-19T06:21:51.962Z,-3.40
2022-11-19T06:24:19.638Z,-3.43
2022-11-19T06:26:47.542Z,-3.51
2022-11-19T06:29:16.844Z,-3.62
2022-11-19T06:31:45.187Z,-3.69
2022-11-19T06:34:13.182Z,-3.77
2022-11-19T06:36:46.242Z,-3.82
2022-11-19T06:39:17.197Z,-3.87
2022-11-19T06:41:45.020Z,-3.91
2022-11-19T06:44:12.571Z,-3.95
2022-11-19T06:46:40.339Z,-3.97
2022-11-19T06:49:09.057Z,-4.01
2022-11-19T06:51:36.645Z,-4.02
2022-11-19T06:54:04.251Z,-4.03
2022-11-19T06:56:31.808Z,-4.05
2022-11-19T06:58:59.663Z,-4.07
2022-11-19T07:01:27.610Z,-4.08
2022-11-19T07:03:55.237Z,-4.06
2022-11-19T07:06:22.833Z,-4.03
2022-11-19T07:08:50.376Z,-4.04
2022-11-19T07:11:27.072Z,-4.03
2022-11-19T07:13:57.822Z,-4.00
2022-11-19T07:16:30.780Z,-3.95
2022-11-19T07:19:04.007Z,-3.89
2022-11-19T07:21:32.211Z,-3.85
2022-11-19T07:24:01.355Z,-3.78
2022-11-19T07:26:30.962Z,-3.73
2022-11-19T07:29:04.834Z,-3.66
2022-11-19T07:31:33.394Z,-3.43
2022-11-19T07:34:01.075Z,-2.94
2022-11-19T07:36:28.707Z,-2.16
2022-11-19T07:38:57.621Z,-1.73
2022-11-19T07:42:03.947Z,-1.61
2022-11-19T07:44:34.264Z,-1.30
2022-11-19T07:47:02.380Z,-0.71
2022-11-19T07:49:29.995Z,-0.23
2022-11-19T07:51:57.623Z,0.22
2022-11-19T07:54:25.330Z,0.45
2022-11-19T07:56:52.911Z,0.39
2022-11-19T07:59:20.784Z,0.35
2022-11-19T08:01:48.785Z,0.34
2022-11-19T08:04:16.639Z,0.21
2022-11-19T08:06:44.240Z,0.17
2022-11-19T08:09:12.103Z,0.16
2022-11-19T08:11:40.510Z,0.18
2022-11-19T08:14:08.518Z,0.19
2022-11-19T08:16:55.016Z,0.14
2022-11-19T08:19:23.131Z,0.03
2022-11-19T08:21:51.323Z,-0.04
2022-11-19T08:24:20.588Z,-0.09
2022-11-19T08:26:49.071Z,-0.12
2022-11-19T08:29:18.451Z,-0.20
2022-11-19T08:31:47.875Z,-0.26
2022-11-19T08:34:16.635Z,-0.27
2022-11-19T08:36:44.347Z,-0.34
2022-11-19T08:39:11.988Z,-0.37
2022-11-19T08:41:58.179Z,-0.42
2022-11-19T08:44:25.802Z,-0.48
2022-11-19T08:46:53.656Z,-0.50
2022-11-19T08:49:21.366Z,-0.54
2022-11-19T08:51:48.959Z,-0.61
2022-11-19T08:54:16.994Z,-0.67
2022-11-19T08:56:44.963Z,-0.65
2022-11-19T08:59:12.524Z,-0.64
2022-11-19T09:01:40.110Z,-0.66
2022-11-19T09:04:07.707Z,-0.64
2022-11-19T09:06:35.426Z,-0.60
2022-11-19T09:09:04.383Z,-0.60
2022-11-19T09:11:32.103Z,-0.61
2022-11-19T09:13:59.664Z,-0.67
2022-11-19T09:16:27.578Z,-0.70
2022-11-19T09:18:55.165Z,-0.75
2022-11-19T09:21:22.765Z,-0.81
2022-11-19T09:23:50.351Z,-0.81
2022-11-19T09:26:18.727Z,-0.79
2022-11-19T09:28:46.426Z,-0.78
2022-11-19T09:31:16.768Z,-0.79
2022-11-19T09:33:50.045Z,-0.80
2022-11-19T09:36:18.537Z,-0.81
2022-11-19T09:38:46.889Z,-0.84
2022-11-19T09:41:17.554Z,-0.82
2022-11-19T09:43:49.103Z,-0.78
2022-11-19T09:46:24.781Z,-0.74
2022-11-19T09:48:54.314Z,-0.69
2022-11-19T09:51:29.013Z,-0.65
2022-11-19T09:53:59.016Z,-0.64
2022-11-19T09:56:31.071Z,-0.66
2022-11-19T09:58:59.002Z,-0.64
2022-11-19T10:01:28.262Z,-0.63
2022-11-19T10:03:56.064Z,-0.60
2022-11-19T10:06:34.763Z,-0.58
2022-11-19T10:09:05.390Z,-0.58
2022-11-19T10:11:53.464Z,-0.59
2022-11-19T10:14:36.396Z,-0.62
2022-11-19T10:17:06.645Z,-0.63
2022-11-19T10:19:41.279Z,-0.58
2022-11-19T10:22:20.510Z,-0.53
2022-11-19T10:24:57.538Z,-0.54
2022-11-19T10:27:37.073Z,-0.55
2022-11-19T10:30:16.859Z,-0.57
2022-11-19T10:32:51.468Z,-0.57
2022-11-19T10:35:24.125Z,-0.55
2022-11-19T10:37:58.580Z,-0.48
2022-11-19T10:40:43.752Z,-0.44
2022-11-19T10:43:38.108Z,-0.41
2022-11-19T10:46:09.442Z,-0.38
2022-11-19T10:48:43.463Z,-0.36
2022-11-19T10:51:23.421Z,-0.33
2022-11-19T10:53:51.530Z,-0.28
2022-11-19T10:56:22.220Z,-0.23
2022-11-19T10:58:58.410Z,-0.21
2022-11-19T11:01:32.000Z,-0.17
2022-11-19T11:04:17.336Z,-0.13
2022-11-19T11:06:55.622Z,-0.10
2022-11-19T11:09:37.866Z,-0.09
2022-11-19T11:12:44.387Z,-0.08
2022-11-19T11:15:19.019Z,-0.03
2022-11-19T11:17:47.543Z,0.04
2022-11-19T11:20:18.150Z,0.07
2022-11-19T11:22:48.969Z,0.11
2022-11-19T11:25:22.173Z,0.18
2022-11-19T11:28:05.427Z,0.21
2022-11-19T11:30:34.077Z,0.21
2022-11-19T11:33:24.232Z,0.19
2022-11-19T11:35:53.263Z,0.19
2022-11-19T11:38:24.508Z,0.23
2022-11-19T11:44:04.625Z,0.33
2022-11-19T11:46:38.356Z,0.39
2022-11-19T11:49:20.725Z,0.42
2022-11-19T11:51:56.871Z,0.45
2022-11-19T11:54:24.635Z,0.43
2022-11-19T11:56:52.204Z,0.39
2022-11-19T11:59:23.070Z,0.32
2022-11-19T12:02:19.849Z,0.28
2022-11-19T12:04:49.422Z,0.23
2022-11-19T12:07:47.940Z,0.22
2022-11-19T12:10:52.205Z,0.21
2022-11-19T12:13:42.803Z,0.21
2022-11-19T12:16:20.390Z,0.20
2022-11-19T12:19:02.121Z,0.16
2022-11-19T12:21:41.696Z,0.08
2022-11-19T12:24:18.769Z,0.01
2022-11-19T12:27:31.760Z,0.03
2022-11-19T12:30:18.234Z,0.04
2022-11-19T12:33:07.871Z,0.06
2022-11-19T12:35:47.352Z,0.01
2022-11-19T12:39:03.408Z,-0.00
2022-11-19T12:41:48.095Z,0.02
2022-11-19T12:44:29.462Z,0.03
2022-11-19T12:47:22.430Z,0.02
2022-11-19T12:49:57.772Z,0.02
2022-11-19T12:52:35.679Z,0.04
2022-11-19T12:55:25.339Z,0.07
2022-11-19T12:58:17.607Z,0.09
2022-11-19T13:00:52.804Z,0.09
2022-11-19T13:03:32.958Z,0.07
2022-11-19T13:06:03.284Z,0.08
2022-11-19T13:08:43.017Z,0.08
2022-11-19T13:11:28.351Z,0.09
2022-11-19T13:14:01.068Z,0.07
2022-11-19T13:16:30.844Z,0.06
2022-11-19T13:19:14.519Z,0.06
2022-11-19T13:22:04.500Z,0.06
2022-11-19T13:24:40.371Z,0.04
2022-11-19T13:27:16.494Z,0.03
2022-11-19T13:30:18.902Z,-0.02
2022-11-19T13:33:10.888Z,-0.06
2022-11-19T13:35:52.972Z,-0.12
2022-11-19T13:38:44.990Z,-0.16
2022-11-19T13:41:24.279Z,-0.19
2022-11-19T13:44:14.428Z,-0.19
2022-11-19T13:46:53.481Z,-0.24
2022-11-19T13:49:34.191Z,-0.29
2022-11-19T13:52:07.382Z,-0.33
2022-11-19T13:54:37.123Z,-0.34
2022-11-19T13:57:06.122Z,-0.34
2022-11-19T13:59:40.295Z,-0.34
2022-11-19T14:02:27.351Z,-0.36
2022-11-19T14:05:06.198Z,-0.39
2022-11-19T14:07:50.154Z,-0.41
2022-11-19T14:10:27.589Z,-0.43
2022-11-19T14:13:16.758Z,-0.45
2022-11-19T14:16:15.182Z,-0.48
2022-11-19T14:19:05.098Z,-0.54
2022-11-19T14:21:54.567Z,-0.58
2022-11-19T14:24:44.073Z,-0.62
2022-11-19T14:27:17.222Z,-0.65
2022-11-19T14:29:44.776Z,-0.66
2022-11-19T14:32:12.675Z,-0.69
2022-11-19T14:34:46.793Z,-0.71
2022-11-19T14:37:21.688Z,-0.72
2022-11-19T14:39:55.770Z,-0.75
2022-11-19T14:42:23.333Z,-0.79
2022-11-19T14:45:02.997Z,-0.81
2022-11-19T14:47:35.891Z,-0.81
2022-11-19T14:50:22.259Z,-0.80
2022-11-19T14:52:52.317Z,-0.79
2022-11-19T14:55:23.435Z,-0.80
2022-11-19T14:57:57.185Z,-0.80
2022-11-19T15:00:37.649Z,-0.83
2022-11-19T15:03:08.600Z,-0.86
2022-11-19T15:05:40.535Z,-0.90
2022-11-19T15:08:17.353Z,-0.94
2022-11-19T15:11:08.022Z,-0.98
2022-11-19T15:13:37.622Z,-1.02
2022-11-19T15:16:17.459Z,-1.04
2022-11-19T15:18:45.004Z,-1.08
2022-11-19T15:21:42.250Z,-1.11
2022-11-19T15:24:23.684Z,-1.17
2022-11-19T15:27:17.355Z,-1.19
2022-11-19T15:30:03.414Z,-1.22
2022-11-19T15:32:50.031Z,-1.26
2022-11-19T15:35:55.022Z,-1.30
2022-11-19T15:38:22.626Z,-1.34
2022-11-19T15:40:55.235Z,-1.36
2022-11-19T15:43:33.547Z,-1.37
2022-11-19T15:46:07.371Z,-1.38
2022-11-19T15:49:01.967Z,-1.40
2022-11-19T15:51:33.051Z,-1.43
2022-11-19T15:54:02.742Z,-1.44
2022-11-19T15:56:47.559Z,-1.44
2022-11-19T15:59:17.334Z,-1.46
2022-11-19T16:01:46.464Z,-1.47
2022-11-19T16:04:16.053Z,-1.50
2022-11-19T16:06:45.748Z,-1.54
2022-11-19T16:09:19.166Z,-1.60
2022-11-19T16:12:05.934Z,-1.65
2022-11-19T16:14:52.299Z,-1.71
2022-11-19T16:17:43.538Z,-1.76
2022-11-19T16:20:12.483Z,-1.78
2022-11-19T16:23:02.187Z,-1.76
2022-11-19T16:25:43.034Z,-1.75
2022-11-19T16:28:12.901Z,-1.76
2022-11-19T16:30:48.203Z,-1.76
2022-11-19T16:33:21.178Z,-1.74
2022-11-19T16:35:52.849Z,-1.75
2022-11-19T16:38:27.754Z,-1.76
2022-11-19T16:41:15.264Z,-1.77
2022-11-19T16:43:44.805Z,-1.79
2022-11-19T16:46:16.044Z,-1.80
2022-11-19T16:48:49.941Z,-1.81
2022-11-19T16:51:40.220Z,-1.82
2022-11-19T16:54:10.152Z,-1.84
2022-11-19T16:56:43.955Z,-1.85
2022-11-19T16:59:20.554Z,-1.85
2022-11-19T17:01:54.619Z,-1.87
2022-11-19T17:04:29.025Z,-1.89
2022-11-19T17:06:59.806Z,-1.91
2022-11-19T17:09:41.528Z,-1.94
2022-11-19T17:12:27.247Z,-1.99
2022-11-19T17:14:59.715Z,-2.04
2022-11-19T17:17:41.206Z,-2.06
2022-11-19T17:20:30.497Z,-2.06
2022-11-19T17:22:59.876Z,-2.03
2022-11-19T17:25:27.852Z,-1.99
2022-11-19T17:27:56.924Z,-1.96
2022-11-19T17:30:27.164Z,-1.93
2022-11-19T17:33:04.951Z,-1.93
2022-11-19T17:35:43.322Z,-1.93
2022-11-19T17:38:12.162Z,-1.93
2022-11-19T17:41:02.311Z,-1.94
2022-11-19T17:43:51.538Z,-1.95
2022-11-19T17:46:19.918Z,-1.97
2022-11-19T17:48:48.993Z,-1.96
2022-11-19T17:51:21.832Z,-1.93
2022-11-19T17:53:51.696Z,-1.90
2022-11-19T17:56:25.180Z,-1.88
2022-11-19T17:58:53.407Z,-1.87
2022-11-19T18:01:21.788Z,-1.83
2022-11-19T18:03:49.579Z,-1.81
2022-11-19T18:06:18.130Z,-1.81
2022-11-19T18:08:46.121Z,-1.79
2022-11-19T18:11:17.198Z,-1.80
2022-11-19T18:13:45.863Z,-1.80
2022-11-19T18:16:18.874Z,-1.79
2022-11-19T18:18:46.960Z,-1.79
2022-11-19T18:21:17.180Z,-1.79
2022-11-19T18:23:45.440Z,-1.78
2022-11-19T18:26:15.053Z,-1.77
2022-11-19T18:28:43.830Z,-1.77
2022-11-19T18:31:23.489Z,-1.78
2022-11-19T18:33:51.092Z,-1.77
2022-11-19T18:36:19.060Z,-1.76
2022-11-19T18:38:46.866Z,-1.74
2022-11-19T18:41:18.830Z,-1.73
2022-11-19T18:44:05.371Z,-1.73
2022-11-19T18:46:33.023Z,-1.73
2022-11-19T18:49:00.647Z,-1.72
2022-11-19T18:51:30.600Z,-1.70
2022-11-19T18:53:58.343Z,-1.70
2022-11-19T18:56:26.318Z,-1.69
2022-11-19T18:58:54.502Z,-1.68
2022-11-19T19:01:23.943Z,-1.69
2022-11-19T19:03:52.436Z,-1.70
2022-11-19T19:06:22.995Z,-1.71
2022-11-19T19:08:50.686Z,-1.71
2022-11-19T19:11:37.290Z,-1.70
2022-11-19T19:14:04.992Z,-1.69
2022-11-19T19:16:32.917Z,-1.66
2022-11-19T19:19:01.696Z,-1.63
2022-11-19T19:21:29.704Z,-1.62
2022-11-19T19:23:57.272Z,-1.61
2022-11-19T19:26:25.055Z,-1.59
2022-11-19T19:28:54.446Z,-1.58
2022-11-19T19:31:23.437Z,-1.56
2022-11-19T19:33:51.757Z,-1.55
2022-11-19T19:36:21.890Z,-1.55
2022-11-19T19:38:49.495Z,-1.54
2022-11-19T19:41:20.971Z,-1.53
2022-11-19T19:43:50.340Z,-1.56
2022-11-19T19:46:20.383Z,-1.57
2022-11-19T19:48:50.102Z,-1.56
2022-11-19T19:51:18.947Z,-1.54
2022-11-19T19:53:47.078Z,-1.54
2022-11-19T19:56:22.510Z,-1.54
2022-11-19T19:58:51.197Z,-1.54
2022-11-19T20:01:27.768Z,-1.53
2022-11-19T20:04:06.433Z,-1.55
2022-11-19T20:06:35.488Z,-1.56
2022-11-19T20:09:08.947Z,-1.55
2022-11-19T20:11:37.878Z,-1.55
2022-11-19T20:14:05.722Z,-1.55
2022-11-19T20:16:35.032Z,-1.54
2022-11-19T20:19:03.379Z,-1.52
2022-11-19T20:21:33.916Z,-1.51
2022-11-19T20:24:07.186Z,-1.52
2022-11-19T20:26:39.004Z,-1.56
2022-11-19T20:29:06.845Z,-1.59
2022-11-19T20:31:35.100Z,-1.61
2022-11-19T20:34:04.608Z,-1.60
2022-11-19T20:36:33.916Z,-1.61
2022-11-19T20:39:02.098Z,-1.61
2022-11-19T20:41:48.380Z,-1.64
2022-11-19T20:44:20.763Z,-1.70
2022-11-19T20:46:53.043Z,-1.74
2022-11-19T20:49:23.337Z,-1.79
2022-11-19T20:51:52.493Z,-1.82
2022-11-19T20:54:21.604Z,-1.86
2022-11-19T20:56:50.640Z,-1.90
2022-11-19T20:59:18.949Z,-1.94
2022-11-19T21:01:51.074Z,-1.96
2022-11-19T21:04:19.944Z,-1.98
2022-11-19T21:06:49.714Z,-2.02
2022-11-19T21:09:19.923Z,-2.05
2022-11-19T21:11:48.144Z,-2.07
2022-11-19T21:14:15.844Z,-2.10
2022-11-19T21:16:43.705Z,-2.11
2022-11-19T21:19:11.588Z,-2.12
2022-11-19T21:21:39.886Z,-2.12
2022-11-19T21:24:08.036Z,-2.11
2022-11-19T21:26:35.895Z,-2.10
2022-11-19T21:29:03.827Z,-2.09
2022-11-19T21:31:46.232Z,-2.08
2022-11-19T21:34:17.535Z,-2.08
2022-11-19T21:36:45.856Z,-2.08
2022-11-19T21:39:16.197Z,-2.08
2022-11-19T21:41:44.244Z,-2.09
2022-11-19T21:44:14.310Z,-2.08
2022-11-19T21:46:46.142Z,-2.08
2022-11-19T21:49:13.846Z,-2.05
2022-11-19T21:51:41.475Z,-2.03
2022-11-19T21:54:09.222Z,-2.01
2022-11-19T21:56:38.882Z,-2.00
2022-11-19T21:59:07.376Z,-2.01
2022-11-19T22:01:35.360Z,-2.03
2022-11-19T22:04:04.428Z,-2.03
2022-11-19T22:06:32.405Z,-2.04
2022-11-19T22:09:00.173Z,-2.05
2022-11-19T22:11:31.363Z,-2.10
2022-11-19T22:14:07.958Z,-2.15
2022-11-19T22:16:38.431Z,-2.22
2022-11-19T22:19:06.955Z,-2.30
2022-11-19T22:21:35.020Z,-2.36
2022-11-19T22:24:03.151Z,-2.39
2022-11-19T22:26:31.322Z,-2.41
2022-11-19T22:28:58.932Z,-2.43
2022-11-19T22:31:26.730Z,-2.43
2022-11-19T22:33:54.944Z,-2.44
2022-11-19T22:36:23.402Z,-2.44
2022-11-19T22:38:51.928Z,-2.42
2022-11-19T22:41:21.519Z,-2.41
2022-11-19T22:43:49.782Z,-2.41
2022-11-19T22:46:18.070Z,-2.44
2022-11-19T22:48:45.999Z,-2.44
2022-11-19T22:51:16.024Z,-2.45
2022-11-19T22:53:44.258Z,-2.46
2022-11-19T22:56:16.300Z,-2.46
2022-11-19T22:58:43.982Z,-2.46
2022-11-19T23:01:23.187Z,-2.45
2022-11-19T23:03:51.666Z,-2.48
2022-11-19T23:06:19.687Z,-2.49
2022-11-19T23:08:47.339Z,-2.48
2022-11-19T23:11:16.814Z,-2.48
2022-11-19T23:13:45.031Z,-2.47
2022-11-19T23:16:15.851Z,-2.49
2022-11-19T23:18:51.471Z,-2.49
2022-11-19T23:21:21.943Z,-2.50
2022-11-19T23:23:50.585Z,-2.49
2022-11-19T23:26:21.437Z,-2.50
2022-11-19T23:28:49.666Z,-2.53
2022-11-19T23:31:20.090Z,-2.56
2022-11-19T23:33:48.543Z,-2.59
2022-11-19T23:36:22.058Z,-2.63
2022-11-19T23:38:50.090Z,-2.64
2022-11-19T23:41:19.585Z,-2.65
2022-11-19T23:43:48.350Z,-2.67
2022-11-19T23:46:18.492Z,-2.66
2022-11-19T23:48:47.934Z,-2.66
2022-11-19T23:51:21.729Z,-2.66
2022-11-19T23:53:49.791Z,-2.63
2022-11-19T23:56:18.610Z,-2.59
2022-11-19T23:58:46.477Z,-2.56
